Terminal Aerodrome Forecast
Issued by NWS

Home | Current Version | Previous Version | Text Only | Print | Product List | Glossary On
Versions: 1 2 3 4 5 6 7 8 9 10 11 12 13 14
839
FTUS43 KAPX 252328
TAFPLN
TAF
KPLN 252328Z 2600/2624 03005KT P6SM FEW004 BKN250
     FM260900 11006KT P6SM VCSH OVC100
     FM261200 12007KT P6SM OVC100
     FM261500 14011G20KT P6SM OVC040
     FM261800 15013G23KT P6SM -SHRA BKN040
     FM262000 17011G21KT P6SM BKN025=

USA.gov is the U.S. government's official web portal to all federal, state and local government web resources and services.